Time;durP1;ratioP1;P1;durP2;ratioP2;P2;SDS_P1;SDS_P2;PMS_P1;PMS_P2;Temp;Humidity;BMP_temperature;BMP_pressure;BME280_temperature;BME280_humidity;BME280_pressure;Samples;Min_cycle;Max_cycle;Signal;HPM_P1;HPM_P2
2023/10/15 00:00:00;;;;;;;;;;;;;;;;;;5096208;28;20040;-74
2023/10/15 00:02:27;;;;;;;;;;;;;;;;;;5095674;28;20379;-74
2023/10/15 00:04:53;;;;;;;;;;;;;;;;;;5096120;28;19904;-74
2023/10/15 00:07:19;;;;;;;;;;;;;;;;;;5096505;28;20390;-74
2023/10/15 00:09:45;;;;;;;;;;;;;;;;;;5095612;28;20381;-74
2023/10/15 00:12:11;;;;;;;;;;;;;;;;;;5095975;28;19998;-74
2023/10/15 00:14:37;;;;;;;;;;;;;;;;;;5095297;28;19945;-74
2023/10/15 00:17:05;;;;;;;;;;;;;;;;;;5095885;28;19927;-74
2023/10/15 00:19:32;;;;;;;;;;;;;;;;;;5095889;28;19904;-74
2023/10/15 00:21:58;;;;;;;;;;;;;;;;;;5095409;28;19907;-74
2023/10/15 00:24:25;;;;;;;;;;;;;;;;;;5095842;28;19911;-74
2023/10/15 00:26:51;;;;;;;;;;;;;;;;;;5095718;28;19904;-73
2023/10/15 00:29:17;;;;;;;;;;;;;;;;;;5095231;28;20406;-73
2023/10/15 00:31:43;;;;;;;;;;;;;;;;;;5095596;28;20305;-73
2023/10/15 00:34:12;;;;;;;;;;;;;;;;;;5095530;28;19912;-73
2023/10/15 00:36:38;;;;;;;;;;;;;;;;;;5094187;28;19904;-73
2023/10/15 00:39:09;;;;;;;;;;;;;;;;;;5095467;28;20309;-73
2023/10/15 00:41:35;;;;;;;;;;;;;;;;;;5095459;28;19935;-73
2023/10/15 00:44:06;;;;;;;;;;;;;;;;;;5094995;28;19911;-73
2023/10/15 00:46:32;;;;;;;;;;;;;;;;;;5095469;28;19911;-74
2023/10/15 00:49:09;;;;;;;;;;;;;;;;;;5095271;28;19945;-75
2023/10/15 00:51:40;;;;;;;;;;;;;;;;;;5094983;28;19933;-73
2023/10/15 00:54:10;;;;;;;;;;;;;;;;;;5095127;28;19916;-73
2023/10/15 00:56:36;;;;;;;;;;;;;;;;;;5076854;28;19908;-73
2023/10/15 00:59:34;;;;;;;;;;;;;;;;;;5094716;28;19904;-73
2023/10/15 01:02:03;;;;;;;;;;;;;;;;;;5094384;28;20329;-73
2023/10/15 01:04:32;;;;;;;;;;;;;;;;;;5094860;28;20394;-73
2023/10/15 01:07:00;;;;;;;;;;;;;;;;;;5094892;28;19904;-73
2023/10/15 01:09:30;;;;;;;;;;;;;;;;;;5094823;28;20364;-73
2023/10/15 01:11:56;;;;;;;;;;;;;;;;;;5094406;28;20063;-73
2023/10/15 01:16:54;;;;;;;;;;;;;;;;;;5094695;28;19908;-73
2023/10/15 01:19:31;;;;;;;;;;;;;;;;;;5094268;28;19904;-73
2023/10/15 01:21:57;;;;;;;;;;;;;;;;;;5094646;28;19904;-73
2023/10/15 01:24:25;;;;;;;;;;;;;;;;;;5094547;28;19904;-73
2023/10/15 01:27:04;;;;;;;;;;;;;;;;;;5094192;28;19904;-73
2023/10/15 01:29:33;;;;;;;;;;;;;;;;;;5094940;28;19964;-73
2023/10/15 01:32:03;;;;;;;;;;;;;;;;;;5094539;28;19904;-73
2023/10/15 01:34:30;;;;;;;;;;;;;;;;;;5094392;28;19919;-73
2023/10/15 01:36:59;;;;;;;;;;;;;;;;;;5094498;28;20372;-73
2023/10/15 01:39:38;;;;;;;;;;;;;;;;;;5094104;28;19950;-73
2023/10/15 01:42:06;;;;;;;;;;;;;;;;;;5094321;28;19943;-73
2023/10/15 01:44:32;;;;;;;;;;;;;;;;;;5094322;28;20283;-73
2023/10/15 01:49:33;;;;;;;;;;;;;;;;;;5094089;28;20034;-73
2023/10/15 01:52:12;;;;;;;;;;;;;;;;;;5094290;28;19904;-73
2023/10/15 01:54:41;;;;;;;;;;;;;;;;;;5093703;28;19934;-73
2023/10/15 01:57:07;;;;;;;;;;;;;;;;;;5094135;28;19911;-73
2023/10/15 01:59:41;;;;;;;;;;;;;;;;;;5094319;28;19912;-73
2023/10/15 02:02:08;;;;;;;;;;;;;;;;;;5093806;28;19915;-73
2023/10/15 02:04:42;;;;;;;;;;;;;;;;;;5094105;28;19991;-73
2023/10/15 02:07:12;;;;;;;;;;;;;;;;;;5093708;28;19904;-73
2023/10/15 02:09:38;;;;;;;;;;;;;;;;;;5094003;28;19904;-73
2023/10/15 02:12:07;;;;;;;;;;;;;;;;;;5094072;28;19904;-74
2023/10/15 02:14:33;;;;;;;;;;;;;;;;;;5093286;28;19962;-73
2023/10/15 02:16:59;;;;;;;;;;;;;;;;;;5094469;28;19949;-73
2023/10/15 02:19:35;;;;;;;;;;;;;;;;;;5093885;28;19904;-73
2023/10/15 02:22:01;;;;;;;;;;;;;;;;;;5093464;28;19904;-73
2023/10/15 02:24:32;;;;;;;;;;;;;;;;;;5093769;28;20279;-73
2023/10/15 02:26:58;;;;;;;;;;;;;;;;;;5093937;28;19958;-74
2023/10/15 02:29:34;;;;;;;;;;;;;;;;;;5093405;28;19908;-73
2023/10/15 02:32:33;;;;;;;;;;;;;;;;;;5094000;28;19904;-73
2023/10/15 02:34:52;;;;;;;;;;;;;;;;;;5089874;28;19912;-74
2023/10/15 02:37:19;;;;;;;;;;;;;;;;;;5093294;28;19911;-74
2023/10/15 02:39:49;;;;;;;;;;;;;;;;;;5093700;28;19943;-73
2023/10/15 02:42:16;;;;;;;;;;;;;;;;;;5094122;28;19905;-73
2023/10/15 02:44:42;;;;;;;;;;;;;;;;;;5093989;28;20302;-73
2023/10/15 02:47:19;;;;;;;;;;;;;;;;;;5094107;28;20224;-73
2023/10/15 02:52:23;;;;;;;;;;;;;;;;;;5093599;28;19904;-73
2023/10/15 02:54:49;;;;;;;;;;;;;;;;;;5093516;28;20296;-73
2023/10/15 02:57:15;;;;;;;;;;;;;;;;;;5093315;28;19911;-73
2023/10/15 02:59:50;;;;;;;;;;;;;;;;;;5094270;28;19904;-73
2023/10/15 03:02:17;;;;;;;;;;;;;;;;;;5097404;28;19912;-73
2023/10/15 03:04:49;;;;;;;;;;;;;;;;;;5097210;28;19908;-73
2023/10/15 03:07:19;;;;;;;;;;;;;;;;;;5097353;28;19904;-74
2023/10/15 03:09:48;;;;;;;;;;;;;;;;;;5097223;28;19954;-74
2023/10/15 03:12:14;;;;;;;;;;;;;;;;;;5096781;28;19987;-74
2023/10/15 03:14:41;;;;;;;;;;;;;;;;;;5078572;28;19970;-73
2023/10/15 03:17:13;;;;;;;;;;;;;;;;;;5097293;28;19908;-74
2023/10/15 03:19:39;;;;;;;;;;;;;;;;;;5096616;28;19904;-73
2023/10/15 03:22:08;;;;;;;;;;;;;;;;;;5096906;28;19911;-74
2023/10/15 03:24:34;;;;;;;;;;;;;;;;;;5096536;28;19904;-74
2023/10/15 03:27:00;;;;;;;;;;;;;;;;;;5096977;28;19947;-74
2023/10/15 03:29:26;;;;;;;;;;;;;;;;;;5097036;28;19915;-73
2023/10/15 03:32:08;;;;;;;;;;;;;;;;;;5096356;28;20326;-74
2023/10/15 03:35:04;;;;;;;;;;;;;;;;;;5097009;28;19918;-74
2023/10/15 03:37:27;;;;;;;;;;;;;;;;;;5095555;28;19904;-74
2023/10/15 03:39:54;;;;;;;;;;;;;;;;;;5096442;28;20374;-73
2023/10/15 03:42:26;;;;;;;;;;;;;;;;;;5096678;28;19908;-73
2023/10/15 03:44:59;;;;;;;;;;;;;;;;;;5097034;28;19973;-73
2023/10/15 03:47:24;;;;;;;;;;;;;;;;;;5078014;28;19981;-73
2023/10/15 03:49:55;;;;;;;;;;;;;;;;;;5096496;28;20348;-74
2023/10/15 03:52:21;;;;;;;;;;;;;;;;;;5096426;28;19904;-74
2023/10/15 03:54:50;;;;;;;;;;;;;;;;;;5095904;28;19918;-73
2023/10/15 03:57:18;;;;;;;;;;;;;;;;;;5096290;28;20275;-74
2023/10/15 03:59:45;;;;;;;;;;;;;;;;;;5095892;28;20308;-74
2023/10/15 04:02:26;;;;;;;;;;;;;;;;;;5096231;28;19904;-74
2023/10/15 04:05:00;;;;;;;;;;;;;;;;;;5096248;28;19911;-73
2023/10/15 04:07:26;;;;;;;;;;;;;;;;;;5095777;28;20291;-74
2023/10/15 04:09:52;;;;;;;;;;;;;;;;;;5096052;28;19918;-73
2023/10/15 04:12:19;;;;;;;;;;;;;;;;;;5095915;28;19956;-70
2023/10/15 04:14:46;;;;;;;;;;;;;;;;;;5095460;28;19964;-73
2023/10/15 04:17:12;;;;;;;;;;;;;;;;;;5095935;28;19904;-73
2023/10/15 04:19:38;;;;;;;;;;;;;;;;;;5095900;28;19998;-74
2023/10/15 04:22:13;;;;;;;;;;;;;;;;;;5095391;28;19981;-73
2023/10/15 04:24:39;;;;;;;;;;;;;;;;;;5095899;28;19903;-73
2023/10/15 04:27:18;;;;;;;;;;;;;;;;;;5095701;28;20276;-74
2023/10/15 04:29:51;;;;;;;;;;;;;;;;;;5095351;28;19904;-73
2023/10/15 04:32:50;;;;;;;;;;;;;;;;;;5095769;28;19908;-73
2023/10/15 04:35:11;;;;;;;;;;;;;;;;;;5091000;28;19916;-73
2023/10/15 04:37:37;;;;;;;;;;;;;;;;;;5095482;28;19961;-73
2023/10/15 04:40:04;;;;;;;;;;;;;;;;;;5095386;28;19908;-73
2023/10/15 04:42:37;;;;;;;;;;;;;;;;;;5094927;28;19930;-73
2023/10/15 04:45:20;;;;;;;;;;;;;;;;;;5095683;28;19957;-73
2023/10/15 04:47:51;;;;;;;;;;;;;;;;;;5095322;28;20356;-74
2023/10/15 04:50:16;;;;;;;;;;;;;;;;;;5095027;28;19915;-74
2023/10/15 04:52:42;;;;;;;;;;;;;;;;;;5095121;28;20007;-74
2023/10/15 04:55:10;;;;;;;;;;;;;;;;;;5095219;28;19915;-73
2023/10/15 04:57:36;;;;;;;;;;;;;;;;;;5094719;28;20364;-72
2023/10/15 05:00:06;;;;;;;;;;;;;;;;;;5095279;28;19911;-73
2023/10/15 05:02:32;;;;;;;;;;;;;;;;;;5095034;28;19910;-73
2023/10/15 05:05:00;;;;;;;;;;;;;;;;;;5094798;28;20360;-73
2023/10/15 05:07:26;;;;;;;;;;;;;;;;;;5094957;28;19916;-73
2023/10/15 05:09:52;;;;;;;;;;;;;;;;;;5094841;28;19911;-73
2023/10/15 05:12:20;;;;;;;;;;;;;;;;;;5094511;28;19906;-73
2023/10/15 05:14:49;;;;;;;;;;;;;;;;;;5094765;28;20023;-73
2023/10/15 05:17:15;;;;;;;;;;;;;;;;;;5094386;28;19904;-73
2023/10/15 05:19:42;;;;;;;;;;;;;;;;;;5094741;28;19904;-73
2023/10/15 05:22:08;;;;;;;;;;;;;;;;;;5094304;28;19904;-74
2023/10/15 05:24:34;;;;;;;;;;;;;;;;;;5094179;28;20003;-73
2023/10/15 05:27:00;;;;;;;;;;;;;;;;;;5094594;28;20316;-73
2023/10/15 05:29:26;;;;;;;;;;;;;;;;;;5095161;28;20267;-73
2023/10/15 05:31:57;;;;;;;;;;;;;;;;;;5094214;28;20363;-74
2023/10/15 05:34:22;;;;;;;;;;;;;;;;;;5094443;28;19965;-73
2023/10/15 05:36:48;;;;;;;;;;;;;;;;;;5094431;28;19904;-73
2023/10/15 05:39:18;;;;;;;;;;;;;;;;;;5094170;28;19904;-73
2023/10/15 05:41:44;;;;;;;;;;;;;;;;;;5094410;28;19907;-74
2023/10/15 05:44:10;;;;;;;;;;;;;;;;;;5094827;28;20453;-74
2023/10/15 05:46:36;;;;;;;;;;;;;;;;;;5093882;28;20352;-73
2023/10/15 05:49:02;;;;;;;;;;;;;;;;;;5094343;28;19908;-73
2023/10/15 05:51:28;;;;;;;;;;;;;;;;;;5094203;28;19904;-74
2023/10/15 05:53:54;;;;;;;;;;;;;;;;;;5093759;28;19955;-74
2023/10/15 05:56:21;;;;;;;;;;;;;;;;;;5094843;28;19949;-74
2023/10/15 05:58:47;;;;;;;;;;;;;;;;;;5094093;28;19946;-74
2023/10/15 06:01:15;;;;;;;;;;;;;;;;;;5093777;28;19904;-74
2023/10/15 06:03:41;;;;;;;;;;;;;;;;;;5094082;28;19904;-75
2023/10/15 06:06:07;;;;;;;;;;;;;;;;;;5094024;28;19973;-74
2023/10/15 06:08:33;;;;;;;;;;;;;;;;;;5093593;28;19948;-73
2023/10/15 06:10:59;;;;;;;;;;;;;;;;;;5093958;28;19904;-74
2023/10/15 06:13:25;;;;;;;;;;;;;;;;;;5093246;28;19924;-74
2023/10/15 06:15:51;;;;;;;;;;;;;;;;;;5093972;28;19904;-73
2023/10/15 06:18:17;;;;;;;;;;;;;;;;;;5093856;28;19927;-73
2023/10/15 06:20:43;;;;;;;;;;;;;;;;;;5093714;28;19907;-73
2023/10/15 06:23:09;;;;;;;;;;;;;;;;;;5093859;28;19904;-73
2023/10/15 06:25:35;;;;;;;;;;;;;;;;;;5093834;28;19910;-73
2023/10/15 06:28:01;;;;;;;;;;;;;;;;;;5093366;28;19904;-73
2023/10/15 06:30:27;;;;;;;;;;;;;;;;;;5093723;28;19903;-73
2023/10/15 06:32:53;;;;;;;;;;;;;;;;;;5093692;28;19904;-73
2023/10/15 06:35:19;;;;;;;;;;;;;;;;;;5095274;28;19915;-74
2023/10/15 06:37:45;;;;;;;;;;;;;;;;;;5097878;28;20386;-74
2023/10/15 06:40:11;;;;;;;;;;;;;;;;;;5097860;28;19904;-75
2023/10/15 06:42:37;;;;;;;;;;;;;;;;;;5097334;28;19948;-74
2023/10/15 06:45:06;;;;;;;;;;;;;;;;;;5097770;28;19904;-74
2023/10/15 06:47:32;;;;;;;;;;;;;;;;;;5079553;28;20086;-74
2023/10/15 06:49:58;;;;;;;;;;;;;;;;;;5097172;28;20378;-73
2023/10/15 06:52:24;;;;;;;;;;;;;;;;;;5097619;28;19948;-74
2023/10/15 06:54:50;;;;;;;;;;;;;;;;;;5097580;28;19973;-74
2023/10/15 06:57:16;;;;;;;;;;;;;;;;;;5097043;28;19908;-74
2023/10/15 06:59:42;;;;;;;;;;;;;;;;;;5097484;28;20302;-75
2023/10/15 07:02:08;;;;;;;;;;;;;;;;;;5097437;28;19904;-74
2023/10/15 07:04:34;;;;;;;;;;;;;;;;;;5096923;28;19951;-74
2023/10/15 07:07:00;;;;;;;;;;;;;;;;;;5097238;28;19957;-74
2023/10/15 07:09:27;;;;;;;;;;;;;;;;;;5097213;28;19904;-75
2023/10/15 07:11:53;;;;;;;;;;;;;;;;;;5096846;28;19909;-75
2023/10/15 07:14:19;;;;;;;;;;;;;;;;;;5096909;28;19916;-75
2023/10/15 07:20:45;;;;;;;;;;;;;;;;;;5092169;28;20261;-75
2023/10/15 07:23:11;;;;;;;;;;;;;;;;;;5091978;28;20011;-75
2023/10/15 07:25:37;;;;;;;;;;;;;;;;;;5090994;28;19912;-75
2023/10/15 07:28:04;;;;;;;;;;;;;;;;;;5091241;28;19931;-74
2023/10/15 07:30:33;;;;;;;;;;;;;;;;;;5091296;28;19969;-74
2023/10/15 07:32:59;;;;;;;;;;;;;;;;;;5090870;28;19915;-75
2023/10/15 07:35:25;;;;;;;;;;;;;;;;;;5091209;28;19912;-76
2023/10/15 07:37:51;;;;;;;;;;;;;;;;;;5090819;28;19916;-74
2023/10/15 07:40:17;;;;;;;;;;;;;;;;;;5090987;28;19917;-76
2023/10/15 07:42:43;;;;;;;;;;;;;;;;;;5091046;28;19915;-76
2023/10/15 07:45:09;;;;;;;;;;;;;;;;;;5090600;28;19908;-75
2023/10/15 07:47:37;;;;;;;;;;;;;;;;;;5091017;28;20342;-74
2023/10/15 07:50:03;;;;;;;;;;;;;;;;;;5090893;28;19908;-76
2023/10/15 07:52:29;;;;;;;;;;;;;;;;;;5090568;28;20380;-75
2023/10/15 07:54:55;;;;;;;;;;;;;;;;;;5090784;28;19957;-76
2023/10/15 07:57:21;;;;;;;;;;;;;;;;;;5090705;28;19909;-75
2023/10/15 07:59:47;;;;;;;;;;;;;;;;;;5090245;28;20019;-75
2023/10/15 08:02:13;;;;;;;;;;;;;;;;;;5090641;28;19958;-75
2023/10/15 08:06:29;;;;;;;;;;;;;;;;;;5091644;27;19923;-76
2023/10/15 08:13:48;;;;;;;;;;;;;;;;;;5091166;28;19923;-76
2023/10/15 08:17:23;;;;;;;;;;;;;;;;;;5153584;27;20014;-76
2023/10/15 08:26:22;;;;;;;;;;;;;;;;;;5092508;27;19916;-76
2023/10/15 08:28:48;;;;;;;;;;;;;;;;;;5091190;28;19912;-77
2023/10/15 08:31:14;;;;;;;;;;;;;;;;;;5091504;28;19908;-77
2023/10/15 08:33:40;;;;;;;;;;;;;;;;;;5091764;28;19995;-76
2023/10/15 08:36:07;;;;;;;;;;;;;;;;;;5090800;28;19959;-76
2023/10/15 08:38:34;;;;;;;;;;;;;;;;;;5091569;28;20341;-77
2023/10/15 08:41:43;;;;;;;;;;;;;;;;;;5112015;27;19916;-77
2023/10/15 08:44:09;;;;;;;;;;;;;;;;;;5111778;28;19912;-77
2023/10/15 08:46:35;;;;;;;;;;;;;;;;;;5110848;28;19953;-77
2023/10/15 08:49:01;;;;;;;;;;;;;;;;;;5111212;28;19908;-75
2023/10/15 08:51:28;;;;;;;;;;;;;;;;;;5111661;28;20360;-75
2023/10/15 08:53:57;;;;;;;;;;;;;;;;;;5112152;28;19908;-76
2023/10/15 08:56:25;;;;;;;;;;;;;;;;;;5111249;28;19912;-76
2023/10/15 08:58:52;;;;;;;;;;;;;;;;;;5111421;28;19908;-76
2023/10/15 09:01:18;;;;;;;;;;;;;;;;;;5111313;28;19923;-76
2023/10/15 09:03:44;;;;;;;;;;;;;;;;;;5110916;28;19908;-76
2023/10/15 09:06:10;;;;;;;;;;;;;;;;;;5111315;28;20386;-76
2023/10/15 09:08:41;;;;;;;;;;;;;;;;;;5111305;28;19908;-78
2023/10/15 09:11:06;;;;;;;;;;;;;;;;;;5110950;28;19908;-78
2023/10/15 09:14:39;;;;;;;;;;;;;;;;;;5112655;27;19912;-77
2023/10/15 09:17:09;;;;;;;;;;;;;;;;;;5111404;28;20003;-77
2023/10/15 09:19:35;;;;;;;;;;;;;;;;;;5111733;28;19908;-77
2023/10/15 09:22:01;;;;;;;;;;;;;;;;;;5111675;28;19953;-79
2023/10/15 09:24:27;;;;;;;;;;;;;;;;;;5111325;28;19908;-77
2023/10/15 09:26:53;;;;;;;;;;;;;;;;;;5111588;28;19908;-77
2023/10/15 09:29:19;;;;;;;;;;;;;;;;;;5111561;28;19908;-76
2023/10/15 09:31:45;;;;;;;;;;;;;;;;;;5111234;28;20054;-77
2023/10/15 09:34:14;;;;;;;;;;;;;;;;;;5111527;28;19916;-77
2023/10/15 09:36:40;;;;;;;;;;;;;;;;;;5111605;28;19915;-77
2023/10/15 09:39:12;;;;;;;;;;;;;;;;;;5110938;28;19908;-78
2023/10/15 09:41:38;;;;;;;;;;;;;;;;;;5111366;28;19911;-78
2023/10/15 09:44:06;;;;;;;;;;;;;;;;;;5111251;28;20322;-77
2023/10/15 09:46:32;;;;;;;;;;;;;;;;;;5110797;28;19914;-79
2023/10/15 09:48:58;;;;;;;;;;;;;;;;;;5111149;28;19934;-76
2023/10/15 09:51:24;;;;;;;;;;;;;;;;;;5110780;28;19908;-78
2023/10/15 09:53:52;;;;;;;;;;;;;;;;;;5111335;28;19916;-78
2023/10/15 09:56:19;;;;;;;;;;;;;;;;;;5111038;28;19912;-77
2023/10/15 09:58:45;;;;;;;;;;;;;;;;;;5110619;28;19961;-78
2023/10/15 10:01:16;;;;;;;;;;;;;;;;;;5110905;28;19908;-77
2023/10/15 10:03:47;;;;;;;;;;;;;;;;;;5111619;28;19909;-79
2023/10/15 10:06:14;;;;;;;;;;;;;;;;;;5109179;28;20022;-79
2023/10/15 10:08:41;;;;;;;;;;;;;;;;;;5110742;28;20395;-78
2023/10/15 10:11:07;;;;;;;;;;;;;;;;;;5110543;28;19908;-78
2023/10/15 10:13:33;;;;;;;;;;;;;;;;;;5110066;28;20394;-77
2023/10/15 10:15:59;;;;;;;;;;;;;;;;;;5110542;28;20379;-78
2023/10/15 10:18:24;;;;;;;;;;;;;;;;;;5110488;28;20253;-77
2023/10/15 10:20:50;;;;;;;;;;;;;;;;;;5110090;28;19966;-78
2023/10/15 10:23:16;;;;;;;;;;;;;;;;;;5110396;28;19908;-80
2023/10/15 10:25:44;;;;;;;;;;;;;;;;;;5098279;28;19977;-78
2023/10/15 10:28:11;;;;;;;;;;;;;;;;;;5096441;28;19908;-77
2023/10/15 10:30:37;;;;;;;;;;;;;;;;;;5096722;28;19954;-79
2023/10/15 10:33:03;;;;;;;;;;;;;;;;;;5096690;28;19948;-77
2023/10/15 10:35:29;;;;;;;;;;;;;;;;;;5096273;28;19912;-77
2023/10/15 10:37:54;;;;;;;;;;;;;;;;;;5096629;28;19999;-78
2023/10/15 10:40:20;;;;;;;;;;;;;;;;;;5096579;28;19916;-78
2023/10/15 10:42:46;;;;;;;;;;;;;;;;;;5096197;28;19930;-78
2023/10/15 10:45:12;;;;;;;;;;;;;;;;;;5096559;28;19912;-78
2023/10/15 10:47:40;;;;;;;;;;;;;;;;;;5096043;28;19951;-78
2023/10/15 10:50:06;;;;;;;;;;;;;;;;;;5096437;28;19908;-79
2023/10/15 10:52:35;;;;;;;;;;;;;;;;;;5096275;28;19920;-78
2023/10/15 10:55:01;;;;;;;;;;;;;;;;;;5095924;28;19967;-78
2023/10/15 10:57:27;;;;;;;;;;;;;;;;;;5096533;28;19912;-78
2023/10/15 10:59:53;;;;;;;;;;;;;;;;;;5096396;28;20010;-78
2023/10/15 11:02:20;;;;;;;;;;;;;;;;;;5095759;28;19908;-78
2023/10/15 11:04:47;;;;;;;;;;;;;;;;;;5096064;28;19953;-78
2023/10/15 11:07:14;;;;;;;;;;;;;;;;;;5096095;28;19909;-77
2023/10/15 11:09:40;;;;;;;;;;;;;;;;;;5095530;28;19912;-77
2023/10/15 11:12:06;;;;;;;;;;;;;;;;;;5095986;28;20291;-77
2023/10/15 11:14:32;;;;;;;;;;;;;;;;;;5095688;28;19920;-77
2023/10/15 11:16:58;;;;;;;;;;;;;;;;;;5095541;28;20224;-79
2023/10/15 11:19:24;;;;;;;;;;;;;;;;;;5096198;28;20331;-78
2023/10/15 11:21:51;;;;;;;;;;;;;;;;;;5095817;28;19912;-79
2023/10/15 11:24:17;;;;;;;;;;;;;;;;;;5094158;28;20313;-79
2023/10/15 11:26:44;;;;;;;;;;;;;;;;;;5095749;28;19951;-79
2023/10/15 11:29:10;;;;;;;;;;;;;;;;;;5095686;28;19908;-78
2023/10/15 11:31:36;;;;;;;;;;;;;;;;;;5095248;28;19916;-77
2023/10/15 11:34:02;;;;;;;;;;;;;;;;;;5095476;28;19923;-77
2023/10/15 11:36:28;;;;;;;;;;;;;;;;;;5094513;28;20010;-78
2023/10/15 11:38:54;;;;;;;;;;;;;;;;;;5095196;28;19947;-79
2023/10/15 11:41:20;;;;;;;;;;;;;;;;;;5095466;28;19988;-78
2023/10/15 11:43:46;;;;;;;;;;;;;;;;;;5095415;28;20288;-78
2023/10/15 11:46:16;;;;;;;;;;;;;;;;;;5094966;28;19912;-78
2023/10/15 11:48:41;;;;;;;;;;;;;;;;;;5095274;28;19915;-78
2023/10/15 11:51:08;;;;;;;;;;;;;;;;;;5094944;28;19908;-77
2023/10/15 11:53:34;;;;;;;;;;;;;;;;;;5095177;28;19982;-79
2023/10/15 11:56:02;;;;;;;;;;;;;;;;;;5095281;28;19908;-78
2023/10/15 11:58:31;;;;;;;;;;;;;;;;;;5094868;28;19908;-78
2023/10/15 12:00:58;;;;;;;;;;;;;;;;;;5095160;28;19909;-78
2023/10/15 12:03:24;;;;;;;;;;;;;;;;;;5095101;28;19908;-78
2023/10/15 12:05:51;;;;;;;;;;;;;;;;;;5094585;28;19908;-78
2023/10/15 12:08:21;;;;;;;;;;;;;;;;;;5095081;28;19931;-78
2023/10/15 12:10:47;;;;;;;;;;;;;;;;;;5094990;28;19931;-78
2023/10/15 12:13:16;;;;;;;;;;;;;;;;;;5094408;28;20303;-78
2023/10/15 12:15:42;;;;;;;;;;;;;;;;;;5095324;28;20003;-77
2023/10/15 12:18:08;;;;;;;;;;;;;;;;;;5094673;28;20326;-77
2023/10/15 12:20:34;;;;;;;;;;;;;;;;;;5094120;28;20422;-77
2023/10/15 12:23:00;;;;;;;;;;;;;;;;;;5094592;28;19912;-78
2023/10/15 12:25:26;;;;;;;;;;;;;;;;;;5094779;28;19908;-77
2023/10/15 12:27:52;;;;;;;;;;;;;;;;;;5092819;28;19908;-78
2023/10/15 12:30:23;;;;;;;;;;;;;;;;;;5094754;28;19919;-78
2023/10/15 12:32:49;;;;;;;;;;;;;;;;;;5094669;28;20016;-78
2023/10/15 12:35:16;;;;;;;;;;;;;;;;;;5094033;28;19912;-78
2023/10/15 12:37:42;;;;;;;;;;;;;;;;;;5094595;28;20409;-78
2023/10/15 12:40:12;;;;;;;;;;;;;;;;;;5094200;28;19912;-79
2023/10/15 12:42:38;;;;;;;;;;;;;;;;;;5094583;28;19912;-78
2023/10/15 12:45:06;;;;;;;;;;;;;;;;;;5094352;28;19915;-78
2023/10/15 12:47:32;;;;;;;;;;;;;;;;;;5092270;28;19916;-78
2023/10/15 12:49:58;;;;;;;;;;;;;;;;;;5094312;28;19920;-80
2023/10/15 12:52:25;;;;;;;;;;;;;;;;;;5094097;28;19908;-78
2023/10/15 12:54:51;;;;;;;;;;;;;;;;;;5093723;28;19912;-78
2023/10/15 12:57:19;;;;;;;;;;;;;;;;;;5092933;28;19915;-80
2023/10/15 12:59:45;;;;;;;;;;;;;;;;;;5094119;28;19908;-78
2023/10/15 13:02:11;;;;;;;;;;;;;;;;;;5093663;28;19953;-78
2023/10/15 13:04:38;;;;;;;;;;;;;;;;;;5094399;28;20421;-79
2023/10/15 13:07:04;;;;;;;;;;;;;;;;;;5094508;28;19908;-77
2023/10/15 13:09:32;;;;;;;;;;;;;;;;;;5093642;28;19908;-77
2023/10/15 13:11:58;;;;;;;;;;;;;;;;;;5093977;28;19912;-77
2023/10/15 13:14:24;;;;;;;;;;;;;;;;;;5093753;28;19972;-77
2023/10/15 13:16:50;;;;;;;;;;;;;;;;;;5093767;28;19939;-77
2023/10/15 13:19:16;;;;;;;;;;;;;;;;;;5094119;28;19909;-77
2023/10/15 13:21:42;;;;;;;;;;;;;;;;;;5094174;28;19909;-77
2023/10/15 13:24:08;;;;;;;;;;;;;;;;;;5093494;28;19935;-77
2023/10/15 13:26:34;;;;;;;;;;;;;;;;;;5093838;28;20283;-79
2023/10/15 13:29:00;;;;;;;;;;;;;;;;;;5093832;28;19909;-78
2023/10/15 13:31:26;;;;;;;;;;;;;;;;;;5093380;28;19955;-77
2023/10/15 13:33:52;;;;;;;;;;;;;;;;;;5093685;28;20025;-78
2023/10/15 13:36:18;;;;;;;;;;;;;;;;;;5093773;28;19917;-78
2023/10/15 13:38:44;;;;;;;;;;;;;;;;;;5093336;28;20008;-77
2023/10/15 13:41:10;;;;;;;;;;;;;;;;;;5093693;28;19908;-77
2023/10/15 13:43:37;;;;;;;;;;;;;;;;;;5093360;28;19909;-77
2023/10/15 13:46:04;;;;;;;;;;;;;;;;;;5093603;28;19915;-77
2023/10/15 13:48:30;;;;;;;;;;;;;;;;;;5093670;28;19908;-77
2023/10/15 13:50:56;;;;;;;;;;;;;;;;;;5091981;28;19915;-77
2023/10/15 13:53:22;;;;;;;;;;;;;;;;;;5093873;28;19916;-78
2023/10/15 13:55:48;;;;;;;;;;;;;;;;;;5093603;28;20254;-78
2023/10/15 13:58:14;;;;;;;;;;;;;;;;;;5093589;28;19962;-77
2023/10/15 14:00:40;;;;;;;;;;;;;;;;;;5096102;28;19908;-77
2023/10/15 14:03:06;;;;;;;;;;;;;;;;;;5097404;28;20467;-77
2023/10/15 14:05:36;;;;;;;;;;;;;;;;;;5096951;28;20485;-78
2023/10/15 14:08:02;;;;;;;;;;;;;;;;;;5097293;28;19908;-77
2023/10/15 14:10:28;;;;;;;;;;;;;;;;;;5097548;28;19908;-77
2023/10/15 14:12:55;;;;;;;;;;;;;;;;;;5096491;28;20020;-77
2023/10/15 14:15:21;;;;;;;;;;;;;;;;;;5097492;28;19915;-77
2023/10/15 14:17:47;;;;;;;;;;;;;;;;;;5097058;28;19908;-77
2023/10/15 14:20:16;;;;;;;;;;;;;;;;;;5096642;28;19908;-77
2023/10/15 14:22:42;;;;;;;;;;;;;;;;;;5096886;28;20394;-77
2023/10/15 14:25:08;;;;;;;;;;;;;;;;;;5097025;28;19919;-77
2023/10/15 14:27:34;;;;;;;;;;;;;;;;;;5096531;28;19908;-77
2023/10/15 14:30:00;;;;;;;;;;;;;;;;;;5096987;28;19916;-77
2023/10/15 14:32:30;;;;;;;;;;;;;;;;;;5096756;28;20353;-78
2023/10/15 14:34:59;;;;;;;;;;;;;;;;;;5096368;28;19915;-77
2023/10/15 14:37:25;;;;;;;;;;;;;;;;;;5096680;28;20276;-77
2023/10/15 14:39:51;;;;;;;;;;;;;;;;;;5096440;28;19915;-77
2023/10/15 14:42:18;;;;;;;;;;;;;;;;;;5096592;28;19908;-78
2023/10/15 14:44:44;;;;;;;;;;;;;;;;;;5096663;28;20352;-78
2023/10/15 14:47:11;;;;;;;;;;;;;;;;;;5096024;28;19943;-78
2023/10/15 14:49:36;;;;;;;;;;;;;;;;;;5096707;28;20314;-76
2023/10/15 14:52:03;;;;;;;;;;;;;;;;;;5096966;28;19908;-78
2023/10/15 14:54:29;;;;;;;;;;;;;;;;;;5095950;28;19926;-77
2023/10/15 14:56:55;;;;;;;;;;;;;;;;;;5096328;28;19908;-78
2023/10/15 14:59:21;;;;;;;;;;;;;;;;;;5096818;28;19909;-78
2023/10/15 15:01:47;;;;;;;;;;;;;;;;;;5096057;28;19908;-78
2023/10/15 15:04:21;;;;;;;;;;;;;;;;;;5096206;28;20253;-78
2023/10/15 15:06:47;;;;;;;;;;;;;;;;;;5096227;28;20053;-79
2023/10/15 15:09:13;;;;;;;;;;;;;;;;;;5095720;28;20384;-78
2023/10/15 15:11:39;;;;;;;;;;;;;;;;;;5095833;28;19919;-77
2023/10/15 15:14:08;;;;;;;;;;;;;;;;;;5095776;28;19942;-76
2023/10/15 15:16:34;;;;;;;;;;;;;;;;;;5095652;28;20386;-77
2023/10/15 15:19:00;;;;;;;;;;;;;;;;;;5096060;28;19908;-78
2023/10/15 15:21:26;;;;;;;;;;;;;;;;;;5095875;28;19958;-79
2023/10/15 15:23:52;;;;;;;;;;;;;;;;;;5095523;28;19908;-77
2023/10/15 15:26:18;;;;;;;;;;;;;;;;;;5095808;28;19913;-77
2023/10/15 15:28:44;;;;;;;;;;;;;;;;;;5095639;28;20003;-77
2023/10/15 15:31:10;;;;;;;;;;;;;;;;;;5095296;28;19952;-76
2023/10/15 15:33:37;;;;;;;;;;;;;;;;;;5095965;28;19961;-76
2023/10/15 15:36:03;;;;;;;;;;;;;;;;;;5095123;28;20002;-78
2023/10/15 15:38:29;;;;;;;;;;;;;;;;;;5095484;28;20003;-77
2023/10/15 15:40:55;;;;;;;;;;;;;;;;;;5095507;28;19915;-77
2023/10/15 15:43:23;;;;;;;;;;;;;;;;;;5094968;28;19919;-77
2023/10/15 15:45:49;;;;;;;;;;;;;;;;;;5094137;28;20037;-76
2023/10/15 15:48:15;;;;;;;;;;;;;;;;;;5095327;28;19953;-77
2023/10/15 15:50:41;;;;;;;;;;;;;;;;;;5094983;28;19912;-77
2023/10/15 15:53:07;;;;;;;;;;;;;;;;;;5095094;28;19982;-77
2023/10/15 15:55:33;;;;;;;;;;;;;;;;;;5095225;28;20384;-77
2023/10/15 15:57:59;;;;;;;;;;;;;;;;;;5094781;28;19914;-75
2023/10/15 16:00:27;;;;;;;;;;;;;;;;;;5094993;28;19912;-76
2023/10/15 16:02:53;;;;;;;;;;;;;;;;;;5094991;28;19951;-76
2023/10/15 16:07:34;;;;;;;;;;;;;;;;;;5153612;27;19915;-76
2023/10/15 16:10:00;;;;;;;;;;;;;;;;;;5152910;27;20002;-76
2023/10/15 16:12:26;;;;;;;;;;;;;;;;;;5152416;27;20291;-76
2023/10/15 16:14:52;;;;;;;;;;;;;;;;;;5152887;27;19985;-75
2023/10/15 16:17:18;;;;;;;;;;;;;;;;;;5152761;27;20390;-77
2023/10/15 16:19:44;;;;;;;;;;;;;;;;;;5152298;27;19917;-77
2023/10/15 16:22:26;;;;;;;;;;;;;;;;;;5153466;27;20002;-75
2023/10/15 16:24:52;;;;;;;;;;;;;;;;;;5153269;27;20350;-76
2023/10/15 16:27:19;;;;;;;;;;;;;;;;;;5152406;27;19946;-75
2023/10/15 16:29:45;;;;;;;;;;;;;;;;;;5153016;27;19937;-75
2023/10/15 16:32:10;;;;;;;;;;;;;;;;;;5152857;27;19908;-76
2023/10/15 16:36:05;;;;;;;;;;;;;;;;;;5174002;27;20371;-75
2023/10/15 16:38:31;;;;;;;;;;;;;;;;;;5173779;27;19918;-77
2023/10/15 16:40:57;;;;;;;;;;;;;;;;;;5173345;27;20340;-76
2023/10/15 16:43:23;;;;;;;;;;;;;;;;;;5173691;27;19951;-75
2023/10/15 16:45:49;;;;;;;;;;;;;;;;;;5173610;27;19959;-75
2023/10/15 16:48:15;;;;;;;;;;;;;;;;;;5154431;27;19907;-74
2023/10/15 16:50:41;;;;;;;;;;;;;;;;;;5173495;27;19907;-75
2023/10/15 16:53:08;;;;;;;;;;;;;;;;;;5173493;27;19907;-74
2023/10/15 16:55:34;;;;;;;;;;;;;;;;;;5172981;27;19919;-75
2023/10/15 16:58:00;;;;;;;;;;;;;;;;;;5173470;27;19907;-76
2023/10/15 17:00:28;;;;;;;;;;;;;;;;;;5172870;27;19939;-76
2023/10/15 17:03:28;;;;;;;;;;;;;;;;;;5091509;27;19939;-76
2023/10/15 17:09:45;;;;;;;;;;;;;;;;;;5091086;27;19931;-76
2023/10/15 17:12:11;;;;;;;;;;;;;;;;;;5091369;28;20012;-74
2023/10/15 17:14:37;;;;;;;;;;;;;;;;;;5090986;28;19930;-76
2023/10/15 17:17:04;;;;;;;;;;;;;;;;;;5091237;28;19915;-75
2023/10/15 17:19:33;;;;;;;;;;;;;;;;;;5091155;28;19915;-76
2023/10/15 17:21:59;;;;;;;;;;;;;;;;;;5090878;28;19908;-75